Lingwood, United Kingdom
Current Conditions -  °F | °C
As of 2:50 PM on Thursday 23 Oct 2014 (Local Time) from EGSD Reporting Station
Broken Clouds Broken Clouds  
Wind Chill: 59°   Ceiling: 4000
Heat Index: 59°   Visibility: 6mi
Dew Point: 54°   Wind: 16mph
Humidity: 82%   Direction: 220°SW
Pressure: 30.03"   Gusts: NA
Location:  52.62°N, 1.49°E
Report Text: EGSD 231350Z 22014KT 9999 FEW020 SCT030 BKN040 15/12 Q1017
Loading
Personal Weather Stations






























Interactive Weather Map
Tropical Storm Tracking
New forecast layout! Learn more

10-Day Weather Forecast

Advertisements
Track Severe Weather on mobile